Carthage, IL

9:44 AM CST on March 03, 2015 (GMT -0600)
Keokuk Municipal | Change Station
CLOSE
Current Station
Airport
Location: Keokuk,
Elevation: 673 ft
Nearby Weather Stations
Active Advisory: Special Statement

Elev 673 ft 40.46 °N, 91.43 °W | Updated 9 minutes ago

Fog
Fog
32 °F
Feels Like 23 °F
N
12
Wind Variable Wind from SSW

Today
High -- | Low -- °F
--% Chance of Precip.
Yesterday
High -- | Low -- °F
Precip. -- in
6:35 AM 5:57 PM
Waxing Gibbous, 96% visible
Pressure 29.72 in
Visibility 1.2 miles
Clouds Overcast 400 ft
Windchill 23 °F
Dew Point 32 °F
Humidity 100%
Rainfall 0.01 in
Snow Depth Not available.
UV 1 out of 12
Pollen .50 out of 12
Air Quality Not available.
Flu Activity Not available.
METAR KEOK 031535Z AUTO 20010KT 1 1/4SM BR OVC004 00/M00 A2972 RMK AO2

More Conditions Fewer Conditions

Pressure 29.72 in
Visibility 1.2 miles
Clouds Overcast 400 ft
Windchill 23 °F
Dew Point 32 °F
Humidity 100%
Rainfall 0.01 in
Snow Depth Not available.
UV 1 out of 12
Pollen .50 out of 12
Air Quality Not available.
Flu Activity Not available.
METAR KEOK 031535Z AUTO 20010KT 1 1/4SM BR OVC004 00/M00 A2972 RMK AO2

More Conditions Fewer Conditions

10-Day Weather Forecast

Almanac

Astronomy

Mar. 03, 2015 Rise Set
Actual Time
Civil Twilight
Nautical Twilight
Astronomical Twilight
Moon
Length of Visible Light
Length of Day
Tomorrow will be .
, % of the Moon is Illuminated

Today's Extremes

State Highs State Lows

Community

WunderPhotos

Upload Photos

1,802,149 photos uploaded!

WunderBlogs® & News

Nearby

Air Quality

  Air Quality AQ Index Pollutant
Not available.

Snow Depth

Station Depth Elevation

Earthquake Activity

City Distance Mag. Time & Date
Minimum magnitude displayed is 2.5.

Coastal Water Temperatures

Place Temperature

Nearby Weather Stations

Special Statement
Statement as of 9:12 AM CST on March 03, 2015

... Widespread mixed precipitation has ended...

The Winter Weather Advisory for the area has expired.

At 9 am CST... radar and observations indicated drizzle with some
patchy freezing drizzle occurring across the area. Road
information indicates that pavement temperatures have risen above
freezing across the area.

Motorists should continue to exercise caution as some slick spots
may still be possible on less traveled roads.